Terminal Aerodrome Forecast
Issued by NWS

Home | Current Version | Previous Version | Graphics & Text | Print | Product List | Glossary On
Versions: 1 2 3 4 5 6 7 8 9 10 11 12 13 14 15 16
000
FTUS43 KBIS 202300
TAFJMS
TAF
KJMS 202320Z 2100/2124 23013G22KT P6SM BKN110
     FM210200 29011G20KT P6SM SCT250
     FM210400 31012KT P6SM SCT250
     FM211600 31017G25KT P6SM FEW050=

USA.gov is the U.S. government's official web portal to all federal, state and local government web resources and services.